sensor_id;sensor_type;location;lat;lon;timestamp;temperature;humidity
65582;DHT22;52231;40.090;18.348;2024-03-07T00:01:06;8.10;82.10
65582;DHT22;52231;40.090;18.348;2024-03-07T00:03:35;8.00;82.40
65582;DHT22;52231;40.090;18.348;2024-03-07T00:06:03;8.00;82.60
65582;DHT22;52231;40.090;18.348;2024-03-07T00:08:31;8.10;82.80
65582;DHT22;52231;40.090;18.348;2024-03-07T00:11:00;8.10;83.00
65582;DHT22;52231;40.090;18.348;2024-03-07T00:13:28;8.00;83.10
65582;DHT22;52231;40.090;18.348;2024-03-07T00:15:56;7.90;83.00
65582;DHT22;52231;40.090;18.348;2024-03-07T00:18:24;8.00;83.10
65582;DHT22;52231;40.090;18.348;2024-03-07T00:20:52;7.90;83.10
65582;DHT22;52231;40.090;18.348;2024-03-07T00:23:20;7.90;83.00
65582;DHT22;52231;40.090;18.348;2024-03-07T00:25:49;7.90;82.90
65582;DHT22;52231;40.090;18.348;2024-03-07T00:28:17;7.90;82.90
65582;DHT22;52231;40.090;18.348;2024-03-07T00:30:45;8.00;82.90
65582;DHT22;52231;40.090;18.348;2024-03-07T00:33:13;7.90;82.80
65582;DHT22;52231;40.090;18.348;2024-03-07T00:35:41;8.00;82.80
65582;DHT22;52231;40.090;18.348;2024-03-07T00:38:09;8.00;82.70
65582;DHT22;52231;40.090;18.348;2024-03-07T00:40:38;7.90;82.50
65582;DHT22;52231;40.090;18.348;2024-03-07T00:43:06;7.90;82.30
65582;DHT22;52231;40.090;18.348;2024-03-07T00:45:34;8.00;82.20
65582;DHT22;52231;40.090;18.348;2024-03-07T00:48:02;8.00;82.10
65582;DHT22;52231;40.090;18.348;2024-03-07T00:50:31;8.10;82.10
65582;DHT22;52231;40.090;18.348;2024-03-07T00:53:00;8.20;81.90
65582;DHT22;52231;40.090;18.348;2024-03-07T00:55:28;8.20;81.60
65582;DHT22;52231;40.090;18.348;2024-03-07T00:57:56;8.40;81.20
65582;DHT22;52231;40.090;18.348;2024-03-07T01:00:24;8.50;80.90
65582;DHT22;52231;40.090;18.348;2024-03-07T01:02:52;8.50;80.40
65582;DHT22;52231;40.090;18.348;2024-03-07T01:05:21;8.70;79.80
65582;DHT22;52231;40.090;18.348;2024-03-07T01:07:49;8.80;79.10
65582;DHT22;52231;40.090;18.348;2024-03-07T01:10:18;8.90;78.70
65582;DHT22;52231;40.090;18.348;2024-03-07T01:12:46;9.00;78.40
65582;DHT22;52231;40.090;18.348;2024-03-07T01:15:14;9.00;78.10
65582;DHT22;52231;40.090;18.348;2024-03-07T01:17:42;9.00;77.90
65582;DHT22;52231;40.090;18.348;2024-03-07T01:20:13;9.10;77.80
65582;DHT22;52231;40.090;18.348;2024-03-07T01:22:41;9.10;77.80
65582;DHT22;52231;40.090;18.348;2024-03-07T01:25:09;9.00;77.80
65582;DHT22;52231;40.090;18.348;2024-03-07T01:27:37;9.00;77.90
65582;DHT22;52231;40.090;18.348;2024-03-07T01:30:06;9.00;78.10
65582;DHT22;52231;40.090;18.348;2024-03-07T01:32:35;9.00;78.30
65582;DHT22;52231;40.090;18.348;2024-03-07T01:35:04;9.00;78.40
65582;DHT22;52231;40.090;18.348;2024-03-07T01:37:35;9.00;78.50
65582;DHT22;52231;40.090;18.348;2024-03-07T01:40:03;8.90;78.70
65582;DHT22;52231;40.090;18.348;2024-03-07T01:42:33;8.90;78.80
65582;DHT22;52231;40.090;18.348;2024-03-07T01:45:01;8.80;79.00
65582;DHT22;52231;40.090;18.348;2024-03-07T01:47:29;8.80;79.40
65582;DHT22;52231;40.090;18.348;2024-03-07T01:49:58;8.80;79.60
65582;DHT22;52231;40.090;18.348;2024-03-07T01:52:27;8.80;79.90
65582;DHT22;52231;40.090;18.348;2024-03-07T01:54:55;8.80;80.10
65582;DHT22;52231;40.090;18.348;2024-03-07T01:57:24;8.80;80.30
65582;DHT22;52231;40.090;18.348;2024-03-07T01:59:52;8.80;80.40
65582;DHT22;52231;40.090;18.348;2024-03-07T02:02:20;8.80;80.50
65582;DHT22;52231;40.090;18.348;2024-03-07T02:04:48;8.90;80.60
65582;DHT22;52231;40.090;18.348;2024-03-07T02:07:17;8.90;80.70
65582;DHT22;52231;40.090;18.348;2024-03-07T02:09:45;8.90;80.70
65582;DHT22;52231;40.090;18.348;2024-03-07T02:12:13;9.00;80.60
65582;DHT22;52231;40.090;18.348;2024-03-07T02:14:41;9.00;80.60
65582;DHT22;52231;40.090;18.348;2024-03-07T02:17:09;9.10;80.50
65582;DHT22;52231;40.090;18.348;2024-03-07T02:19:37;9.00;80.50
65582;DHT22;52231;40.090;18.348;2024-03-07T02:22:05;9.10;80.50
65582;DHT22;52231;40.090;18.348;2024-03-07T02:24:33;9.10;80.40
65582;DHT22;52231;40.090;18.348;2024-03-07T02:27:01;9.00;80.40
65582;DHT22;52231;40.090;18.348;2024-03-07T02:29:29;9.10;80.40
65582;DHT22;52231;40.090;18.348;2024-03-07T02:31:58;9.00;80.40
65582;DHT22;52231;40.090;18.348;2024-03-07T02:34:26;9.00;80.50
65582;DHT22;52231;40.090;18.348;2024-03-07T02:36:55;8.90;80.50
65582;DHT22;52231;40.090;18.348;2024-03-07T02:39:23;9.00;80.60
65582;DHT22;52231;40.090;18.348;2024-03-07T02:41:53;9.00;80.60
65582;DHT22;52231;40.090;18.348;2024-03-07T02:44:21;9.10;80.60
65582;DHT22;52231;40.090;18.348;2024-03-07T02:46:49;9.10;80.50
65582;DHT22;52231;40.090;18.348;2024-03-07T02:49:17;9.10;80.20
65582;DHT22;52231;40.090;18.348;2024-03-07T02:51:45;9.10;80.10
65582;DHT22;52231;40.090;18.348;2024-03-07T02:54:13;9.10;80.00
65582;DHT22;52231;40.090;18.348;2024-03-07T02:56:41;9.10;79.90
65582;DHT22;52231;40.090;18.348;2024-03-07T02:59:10;9.10;79.90
65582;DHT22;52231;40.090;18.348;2024-03-07T03:01:38;9.00;79.90
65582;DHT22;52231;40.090;18.348;2024-03-07T03:04:06;9.00;79.80
65582;DHT22;52231;40.090;18.348;2024-03-07T03:06:34;9.00;79.60
65582;DHT22;52231;40.090;18.348;2024-03-07T03:09:02;9.00;79.60
65582;DHT22;52231;40.090;18.348;2024-03-07T03:11:51;8.90;79.80
65582;DHT22;52231;40.090;18.348;2024-03-07T03:14:19;8.80;80.00
65582;DHT22;52231;40.090;18.348;2024-03-07T03:16:47;8.80;80.20
65582;DHT22;52231;40.090;18.348;2024-03-07T03:19:15;8.80;80.30
65582;DHT22;52231;40.090;18.348;2024-03-07T03:21:43;8.80;80.50
65582;DHT22;52231;40.090;18.348;2024-03-07T03:24:11;8.80;80.70
65582;DHT22;52231;40.090;18.348;2024-03-07T03:26:39;8.70;80.90
65582;DHT22;52231;40.090;18.348;2024-03-07T03:29:10;8.80;81.00
65582;DHT22;52231;40.090;18.348;2024-03-07T03:31:40;8.70;81.10
65582;DHT22;52231;40.090;18.348;2024-03-07T03:34:08;8.80;81.30
65582;DHT22;52231;40.090;18.348;2024-03-07T03:36:37;8.80;81.60
65582;DHT22;52231;40.090;18.348;2024-03-07T03:39:06;8.70;81.60
65582;DHT22;52231;40.090;18.348;2024-03-07T03:41:35;8.80;81.70
65582;DHT22;52231;40.090;18.348;2024-03-07T03:44:03;8.80;81.70
65582;DHT22;52231;40.090;18.348;2024-03-07T03:46:31;8.80;81.90
65582;DHT22;52231;40.090;18.348;2024-03-07T03:48:59;8.80;81.80
65582;DHT22;52231;40.090;18.348;2024-03-07T03:51:28;8.90;81.80
65582;DHT22;52231;40.090;18.348;2024-03-07T03:53:56;8.80;81.70
65582;DHT22;52231;40.090;18.348;2024-03-07T03:56:24;8.80;81.70
65582;DHT22;52231;40.090;18.348;2024-03-07T03:58:52;8.80;81.70
65582;DHT22;52231;40.090;18.348;2024-03-07T04:01:21;8.80;81.80
65582;DHT22;52231;40.090;18.348;2024-03-07T04:03:49;8.90;82.00
65582;DHT22;52231;40.090;18.348;2024-03-07T04:06:19;8.80;82.00
65582;DHT22;52231;40.090;18.348;2024-03-07T04:08:47;8.80;82.20
65582;DHT22;52231;40.090;18.348;2024-03-07T04:11:15;8.90;82.20
65582;DHT22;52231;40.090;18.348;2024-03-07T04:13:45;8.80;82.30
65582;DHT22;52231;40.090;18.348;2024-03-07T04:16:14;8.90;82.30
65582;DHT22;52231;40.090;18.348;2024-03-07T04:18:43;8.80;82.30
65582;DHT22;52231;40.090;18.348;2024-03-07T04:21:11;8.80;82.30
65582;DHT22;52231;40.090;18.348;2024-03-07T04:23:40;8.90;82.40
65582;DHT22;52231;40.090;18.348;2024-03-07T04:26:08;8.90;82.50
65582;DHT22;52231;40.090;18.348;2024-03-07T04:28:36;8.80;82.50
65582;DHT22;52231;40.090;18.348;2024-03-07T04:31:05;8.80;82.60
65582;DHT22;52231;40.090;18.348;2024-03-07T04:33:33;8.80;82.60
65582;DHT22;52231;40.090;18.348;2024-03-07T04:36:01;8.80;82.60
65582;DHT22;52231;40.090;18.348;2024-03-07T04:38:30;8.80;82.60
65582;DHT22;52231;40.090;18.348;2024-03-07T04:40:58;8.80;82.60
65582;DHT22;52231;40.090;18.348;2024-03-07T04:43:27;8.80;82.60
65582;DHT22;52231;40.090;18.348;2024-03-07T04:45:55;8.80;82.60
65582;DHT22;52231;40.090;18.348;2024-03-07T04:48:24;8.70;82.70
65582;DHT22;52231;40.090;18.348;2024-03-07T04:50:52;8.80;82.80
65582;DHT22;52231;40.090;18.348;2024-03-07T04:53:20;8.80;82.90
65582;DHT22;52231;40.090;18.348;2024-03-07T04:55:48;8.80;82.90
65582;DHT22;52231;40.090;18.348;2024-03-07T04:58:16;8.80;83.00
65582;DHT22;52231;40.090;18.348;2024-03-07T05:00:45;8.80;82.90
65582;DHT22;52231;40.090;18.348;2024-03-07T05:03:13;8.80;82.90
65582;DHT22;52231;40.090;18.348;2024-03-07T05:05:41;8.80;83.00
65582;DHT22;52231;40.090;18.348;2024-03-07T05:08:09;8.80;82.90
65582;DHT22;52231;40.090;18.348;2024-03-07T05:10:38;8.70;82.90
65582;DHT22;52231;40.090;18.348;2024-03-07T05:13:06;8.80;82.90
65582;DHT22;52231;40.090;18.348;2024-03-07T05:15:34;8.80;82.90
65582;DHT22;52231;40.090;18.348;2024-03-07T05:18:04;8.80;82.90
65582;DHT22;52231;40.090;18.348;2024-03-07T05:20:34;8.90;82.80
65582;DHT22;52231;40.090;18.348;2024-03-07T05:23:03;8.80;82.70
65582;DHT22;52231;40.090;18.348;2024-03-07T05:25:33;8.90;82.70
65582;DHT22;52231;40.090;18.348;2024-03-07T05:28:01;8.80;82.50
65582;DHT22;52231;40.090;18.348;2024-03-07T05:30:30;8.90;82.50
65582;DHT22;52231;40.090;18.348;2024-03-07T05:33:00;9.00;82.50
65582;DHT22;52231;40.090;18.348;2024-03-07T05:35:29;9.10;82.30
65582;DHT22;52231;40.090;18.348;2024-03-07T05:37:58;9.30;82.20
65582;DHT22;52231;40.090;18.348;2024-03-07T05:40:27;9.40;82.10
65582;DHT22;52231;40.090;18.348;2024-03-07T05:42:56;9.40;81.90
65582;DHT22;52231;40.090;18.348;2024-03-07T05:45:24;9.60;81.80
65582;DHT22;52231;40.090;18.348;2024-03-07T05:47:52;9.60;81.40
65582;DHT22;52231;40.090;18.348;2024-03-07T05:50:21;9.70;81.40
65582;DHT22;52231;40.090;18.348;2024-03-07T05:52:49;9.70;81.30
65582;DHT22;52231;40.090;18.348;2024-03-07T05:55:17;9.70;81.30
65582;DHT22;52231;40.090;18.348;2024-03-07T05:57:47;9.80;81.30
65582;DHT22;52231;40.090;18.348;2024-03-07T06:00:15;9.80;81.50
65582;DHT22;52231;40.090;18.348;2024-03-07T06:02:43;9.90;81.70
65582;DHT22;52231;40.090;18.348;2024-03-07T06:05:11;9.90;81.60
65582;DHT22;52231;40.090;18.348;2024-03-07T06:07:43;9.90;81.60
65582;DHT22;52231;40.090;18.348;2024-03-07T06:10:14;10.00;81.40
65582;DHT22;52231;40.090;18.348;2024-03-07T06:12:44;10.00;81.40
65582;DHT22;52231;40.090;18.348;2024-03-07T06:15:16;10.00;81.70
65582;DHT22;52231;40.090;18.348;2024-03-07T06:17:45;10.10;81.90
65582;DHT22;52231;40.090;18.348;2024-03-07T06:20:14;10.20;82.20
65582;DHT22;52231;40.090;18.348;2024-03-07T06:22:51;10.20;82.30
65582;DHT22;52231;40.090;18.348;2024-03-07T06:25:20;10.40;82.50
65582;DHT22;52231;40.090;18.348;2024-03-07T06:28:01;10.60;82.40
65582;DHT22;52231;40.090;18.348;2024-03-07T06:30:38;10.70;82.40
65582;DHT22;52231;40.090;18.348;2024-03-07T06:33:07;11.00;82.40
65582;DHT22;52231;40.090;18.348;2024-03-07T06:35:36;11.30;82.00
65582;DHT22;52231;40.090;18.348;2024-03-07T06:38:26;11.50;81.70
65582;DHT22;52231;40.090;18.348;2024-03-07T06:40:55;12.10;81.90
65582;DHT22;52231;40.090;18.348;2024-03-07T06:43:23;12.70;80.90
65582;DHT22;52231;40.090;18.348;2024-03-07T06:45:51;13.00;78.30
65582;DHT22;52231;40.090;18.348;2024-03-07T06:48:19;13.30;76.70
65582;DHT22;52231;40.090;18.348;2024-03-07T06:50:49;13.60;75.10
65582;DHT22;52231;40.090;18.348;2024-03-07T06:53:19;13.90;74.30
65582;DHT22;52231;40.090;18.348;2024-03-07T06:55:48;14.50;73.40
65582;DHT22;52231;40.090;18.348;2024-03-07T06:58:16;14.80;70.70
65582;DHT22;52231;40.090;18.348;2024-03-07T07:00:45;15.00;69.60
65582;DHT22;52231;40.090;18.348;2024-03-07T07:03:13;14.90;68.70
65582;DHT22;52231;40.090;18.348;2024-03-07T07:05:42;14.50;69.20
65582;DHT22;52231;40.090;18.348;2024-03-07T07:08:12;13.80;71.00
65582;DHT22;52231;40.090;18.348;2024-03-07T07:10:43;12.90;73.10
65582;DHT22;52231;40.090;18.348;2024-03-07T07:13:12;12.20;75.30
65582;DHT22;52231;40.090;18.348;2024-03-07T07:15:41;11.60;77.50
65582;DHT22;52231;40.090;18.348;2024-03-07T07:18:09;11.40;78.90
65582;DHT22;52231;40.090;18.348;2024-03-07T07:20:38;11.70;80.00
65582;DHT22;52231;40.090;18.348;2024-03-07T07:23:06;11.90;80.60
65582;DHT22;52231;40.090;18.348;2024-03-07T07:25:34;12.10;80.60
65582;DHT22;52231;40.090;18.348;2024-03-07T07:28:02;12.30;80.70
65582;DHT22;52231;40.090;18.348;2024-03-07T07:30:32;12.60;80.50
65582;DHT22;52231;40.090;18.348;2024-03-07T07:33:01;12.60;80.30
65582;DHT22;52231;40.090;18.348;2024-03-07T07:35:29;12.50;80.00
65582;DHT22;52231;40.090;18.348;2024-03-07T07:37:57;12.30;80.30
65582;DHT22;52231;40.090;18.348;2024-03-07T07:40:26;12.50;80.90
65582;DHT22;52231;40.090;18.348;2024-03-07T07:42:55;12.40;80.10
65582;DHT22;52231;40.090;18.348;2024-03-07T07:45:24;12.40;80.20
65582;DHT22;52231;40.090;18.348;2024-03-07T07:47:53;12.60;80.80
65582;DHT22;52231;40.090;18.348;2024-03-07T07:50:23;13.20;81.20
65582;DHT22;52231;40.090;18.348;2024-03-07T07:52:52;13.70;80.30
65582;DHT22;52231;40.090;18.348;2024-03-07T07:55:25;14.10;79.10
65582;DHT22;52231;40.090;18.348;2024-03-07T07:57:58;14.60;76.50
65582;DHT22;52231;40.090;18.348;2024-03-07T08:00:28;15.00;74.30
65582;DHT22;52231;40.090;18.348;2024-03-07T08:03:01;15.10;72.80
65582;DHT22;52231;40.090;18.348;2024-03-07T08:05:31;15.30;73.10
65582;DHT22;52231;40.090;18.348;2024-03-07T08:08:02;15.60;72.50
65582;DHT22;52231;40.090;18.348;2024-03-07T08:10:34;15.60;69.60
65582;DHT22;52231;40.090;18.348;2024-03-07T08:13:04;15.70;69.70
65582;DHT22;52231;40.090;18.348;2024-03-07T08:15:34;15.60;69.40
65582;DHT22;52231;40.090;18.348;2024-03-07T08:18:02;15.40;69.00
65582;DHT22;52231;40.090;18.348;2024-03-07T08:20:36;15.30;68.50
65582;DHT22;52231;40.090;18.348;2024-03-07T08:23:05;15.30;68.40
65582;DHT22;52231;40.090;18.348;2024-03-07T08:25:32;15.40;66.40
65582;DHT22;52231;40.090;18.348;2024-03-07T08:28:01;16.00;67.60
65582;DHT22;52231;40.090;18.348;2024-03-07T08:30:29;16.90;64.40
65582;DHT22;52231;40.090;18.348;2024-03-07T08:32:57;17.40;64.30
65582;DHT22;52231;40.090;18.348;2024-03-07T08:35:26;18.20;62.30
65582;DHT22;52231;40.090;18.348;2024-03-07T08:37:55;18.60;59.90
65582;DHT22;52231;40.090;18.348;2024-03-07T08:40:30;18.80;57.80
65582;DHT22;52231;40.090;18.348;2024-03-07T08:43:02;19.00;57.40
65582;DHT22;52231;40.090;18.348;2024-03-07T08:45:35;18.70;56.20
65582;DHT22;52231;40.090;18.348;2024-03-07T08:48:03;18.20;55.90
65582;DHT22;52231;40.090;18.348;2024-03-07T08:50:36;17.80;55.70
65582;DHT22;52231;40.090;18.348;2024-03-07T08:53:05;18.00;57.20
65582;DHT22;52231;40.090;18.348;2024-03-07T08:55:33;18.00;56.80
65582;DHT22;52231;40.090;18.348;2024-03-07T08:58:03;17.80;57.10
65582;DHT22;52231;40.090;18.348;2024-03-07T09:00:34;17.90;57.00
65582;DHT22;52231;40.090;18.348;2024-03-07T09:03:03;18.20;56.70
65582;DHT22;52231;40.090;18.348;2024-03-07T09:05:38;18.70;54.90
65582;DHT22;52231;40.090;18.348;2024-03-07T09:08:07;19.10;54.20
65582;DHT22;52231;40.090;18.348;2024-03-07T09:10:35;19.30;52.30
65582;DHT22;52231;40.090;18.348;2024-03-07T09:13:04;19.20;51.70
65582;DHT22;52231;40.090;18.348;2024-03-07T09:15:34;19.00;52.40
65582;DHT22;52231;40.090;18.348;2024-03-07T09:18:04;18.90;52.70
65582;DHT22;52231;40.090;18.348;2024-03-07T09:20:32;19.10;52.40
65582;DHT22;52231;40.090;18.348;2024-03-07T09:23:00;19.10;53.10
65582;DHT22;52231;40.090;18.348;2024-03-07T09:25:28;19.40;51.60
65582;DHT22;52231;40.090;18.348;2024-03-07T09:28:01;19.70;51.00
65582;DHT22;52231;40.090;18.348;2024-03-07T09:30:29;20.00;50.10
65582;DHT22;52231;40.090;18.348;2024-03-07T09:32:58;19.70;49.70
65582;DHT22;52231;40.090;18.348;2024-03-07T09:35:26;19.20;50.60
65582;DHT22;52231;40.090;18.348;2024-03-07T09:37:55;18.30;53.90
65582;DHT22;52231;40.090;18.348;2024-03-07T09:40:23;17.70;56.30
65582;DHT22;52231;40.090;18.348;2024-03-07T09:42:54;16.90;58.50
65582;DHT22;52231;40.090;18.348;2024-03-07T09:45:29;16.60;60.70
65582;DHT22;52231;40.090;18.348;2024-03-07T09:47:59;16.30;61.70
65582;DHT22;52231;40.090;18.348;2024-03-07T09:50:29;16.40;62.00
65582;DHT22;52231;40.090;18.348;2024-03-07T09:52:58;16.10;62.10
65582;DHT22;52231;40.090;18.348;2024-03-07T09:55:28;15.90;62.80
65582;DHT22;52231;40.090;18.348;2024-03-07T09:57:58;15.70;64.00
65582;DHT22;52231;40.090;18.348;2024-03-07T10:00:27;15.30;65.90
65582;DHT22;52231;40.090;18.348;2024-03-07T10:03:08;14.70;69.10
65582;DHT22;52231;40.090;18.348;2024-03-07T10:05:39;14.30;72.30
65582;DHT22;52231;40.090;18.348;2024-03-07T10:08:08;14.00;74.10
65582;DHT22;52231;40.090;18.348;2024-03-07T10:10:38;14.00;77.70
65582;DHT22;52231;40.090;18.348;2024-03-07T10:13:07;14.40;78.60
65582;DHT22;52231;40.090;18.348;2024-03-07T10:15:38;15.00;77.40
65582;DHT22;52231;40.090;18.348;2024-03-07T10:18:08;15.30;71.40
65582;DHT22;52231;40.090;18.348;2024-03-07T10:20:37;15.70;68.60
65582;DHT22;52231;40.090;18.348;2024-03-07T10:23:07;15.50;66.20
65582;DHT22;52231;40.090;18.348;2024-03-07T10:25:35;15.30;65.50
65582;DHT22;52231;40.090;18.348;2024-03-07T10:28:05;15.60;65.20
65582;DHT22;52231;40.090;18.348;2024-03-07T10:30:43;15.70;60.60
65582;DHT22;52231;40.090;18.348;2024-03-07T10:33:14;15.90;60.80
65582;DHT22;52231;40.090;18.348;2024-03-07T10:35:42;16.20;58.60
65582;DHT22;52231;40.090;18.348;2024-03-07T10:38:10;16.10;58.20
65582;DHT22;52231;40.090;18.348;2024-03-07T10:40:41;16.30;56.90
65582;DHT22;52231;40.090;18.348;2024-03-07T10:43:11;16.70;57.70
65582;DHT22;52231;40.090;18.348;2024-03-07T10:45:44;17.20;58.00
65582;DHT22;52231;40.090;18.348;2024-03-07T10:48:20;17.30;55.00
65582;DHT22;52231;40.090;18.348;2024-03-07T10:53:59;17.00;56.50
65582;DHT22;52231;40.090;18.348;2024-03-07T10:59:26;16.90;52.60
65582;DHT22;52231;40.090;18.348;2024-03-07T11:04:52;16.80;53.00
65582;DHT22;52231;40.090;18.348;2024-03-07T11:07:23;16.80;51.30
65582;DHT22;52231;40.090;18.348;2024-03-07T11:09:52;16.70;51.80
65582;DHT22;52231;40.090;18.348;2024-03-07T11:12:23;16.60;52.90
65582;DHT22;52231;40.090;18.348;2024-03-07T11:14:53;16.40;54.00
65582;DHT22;52231;40.090;18.348;2024-03-07T11:17:22;16.30;55.50
65582;DHT22;52231;40.090;18.348;2024-03-07T11:19:51;16.50;55.80
65582;DHT22;52231;40.090;18.348;2024-03-07T11:22:31;16.90;55.60
65582;DHT22;52231;40.090;18.348;2024-03-07T11:25:04;17.50;56.40
65582;DHT22;52231;40.090;18.348;2024-03-07T11:27:38;18.00;53.40
65582;DHT22;52231;40.090;18.348;2024-03-07T11:30:07;18.30;51.50
65582;DHT22;52231;40.090;18.348;2024-03-07T11:32:38;18.50;50.40
65582;DHT22;52231;40.090;18.348;2024-03-07T11:35:12;18.70;49.10
65582;DHT22;52231;40.090;18.348;2024-03-07T11:37:44;18.80;46.90
65582;DHT22;52231;40.090;18.348;2024-03-07T11:42:47;19.00;45.70
65582;DHT22;52231;40.090;18.348;2024-03-07T11:45:17;18.80;43.70
65582;DHT22;52231;40.090;18.348;2024-03-07T11:48:08;19.00;43.60
65582;DHT22;52231;40.090;18.348;2024-03-07T11:50:41;19.10;43.40
65582;DHT22;52231;40.090;18.348;2024-03-07T11:53:09;19.00;43.90
65582;DHT22;52231;40.090;18.348;2024-03-07T11:55:38;18.90;50.30
65582;DHT22;52231;40.090;18.348;2024-03-07T11:58:18;18.60;53.30
65582;DHT22;52231;40.090;18.348;2024-03-07T12:00:52;18.20;54.40
65582;DHT22;52231;40.090;18.348;2024-03-07T12:03:21;17.80;55.30
65582;DHT22;52231;40.090;18.348;2024-03-07T12:05:49;17.50;56.10
65582;DHT22;52231;40.090;18.348;2024-03-07T12:08:19;17.40;56.00
65582;DHT22;52231;40.090;18.348;2024-03-07T12:10:50;17.30;55.90
65582;DHT22;52231;40.090;18.348;2024-03-07T12:13:23;17.10;53.80
65582;DHT22;52231;40.090;18.348;2024-03-07T12:15:52;17.00;53.60
65582;DHT22;52231;40.090;18.348;2024-03-07T12:18:22;17.10;52.70
65582;DHT22;52231;40.090;18.348;2024-03-07T12:20:51;17.30;52.50
65582;DHT22;52231;40.090;18.348;2024-03-07T12:23:24;17.20;52.00
65582;DHT22;52231;40.090;18.348;2024-03-07T12:26:00;17.30;52.60
65582;DHT22;52231;40.090;18.348;2024-03-07T12:28:32;17.40;51.30
65582;DHT22;52231;40.090;18.348;2024-03-07T12:31:01;17.50;51.40
65582;DHT22;52231;40.090;18.348;2024-03-07T12:33:30;17.30;51.50
65582;DHT22;52231;40.090;18.348;2024-03-07T12:36:02;17.30;52.30
65582;DHT22;52231;40.090;18.348;2024-03-07T12:38:37;17.10;53.10
65582;DHT22;52231;40.090;18.348;2024-03-07T12:41:10;17.00;53.50
65582;DHT22;52231;40.090;18.348;2024-03-07T12:43:43;16.90;54.10
65582;DHT22;52231;40.090;18.348;2024-03-07T12:46:11;17.00;53.90
65582;DHT22;52231;40.090;18.348;2024-03-07T12:48:41;17.00;53.70
65582;DHT22;52231;40.090;18.348;2024-03-07T12:51:09;16.80;53.10
65582;DHT22;52231;40.090;18.348;2024-03-07T12:53:37;16.70;53.60
65582;DHT22;52231;40.090;18.348;2024-03-07T12:56:05;16.60;54.00
65582;DHT22;52231;40.090;18.348;2024-03-07T12:58:34;16.50;53.70
65582;DHT22;52231;40.090;18.348;2024-03-07T13:01:02;16.40;52.70
65582;DHT22;52231;40.090;18.348;2024-03-07T13:03:30;16.30;53.00
65582;DHT22;52231;40.090;18.348;2024-03-07T13:05:59;16.30;50.90
65582;DHT22;52231;40.090;18.348;2024-03-07T13:08:32;16.30;48.70
65582;DHT22;52231;40.090;18.348;2024-03-07T13:11:00;16.30;48.20
65582;DHT22;52231;40.090;18.348;2024-03-07T13:13:29;16.50;48.10
65582;DHT22;52231;40.090;18.348;2024-03-07T13:15:58;17.00;46.90
65582;DHT22;52231;40.090;18.348;2024-03-07T13:18:26;17.40;45.60
65582;DHT22;52231;40.090;18.348;2024-03-07T13:20:55;17.60;44.90
65582;DHT22;52231;40.090;18.348;2024-03-07T13:23:23;17.80;43.90
65582;DHT22;52231;40.090;18.348;2024-03-07T13:25:55;17.80;44.00
65582;DHT22;52231;40.090;18.348;2024-03-07T13:28:24;17.80;44.10
65582;DHT22;52231;40.090;18.348;2024-03-07T13:30:53;17.90;44.60
65582;DHT22;52231;40.090;18.348;2024-03-07T13:33:23;17.80;43.70
65582;DHT22;52231;40.090;18.348;2024-03-07T13:35:52;17.90;44.10
65582;DHT22;52231;40.090;18.348;2024-03-07T13:38:20;17.90;44.20
65582;DHT22;52231;40.090;18.348;2024-03-07T13:40:49;18.00;43.20
65582;DHT22;52231;40.090;18.348;2024-03-07T13:43:17;18.00;42.80
65582;DHT22;52231;40.090;18.348;2024-03-07T13:45:46;18.10;42.90
65582;DHT22;52231;40.090;18.348;2024-03-07T13:48:16;18.10;43.10
65582;DHT22;52231;40.090;18.348;2024-03-07T13:50:45;18.10;43.50
65582;DHT22;52231;40.090;18.348;2024-03-07T13:53:13;18.00;43.50
65582;DHT22;52231;40.090;18.348;2024-03-07T14:16:25;17.60;38.60
65582;DHT22;52231;40.090;18.348;2024-03-07T14:27:40;17.60;40.60
65582;DHT22;52231;40.090;18.348;2024-03-07T14:33:12;17.60;41.60
65582;DHT22;52231;40.090;18.348;2024-03-07T14:36:10;17.70;46.70
65582;DHT22;52231;40.090;18.348;2024-03-07T14:39:08;17.60;54.60
65582;DHT22;52231;40.090;18.348;2024-03-07T14:41:48;17.40;54.60
65582;DHT22;52231;40.090;18.348;2024-03-07T14:44:19;17.10;46.40
65582;DHT22;52231;40.090;18.348;2024-03-07T14:46:53;16.80;45.70
65582;DHT22;52231;40.090;18.348;2024-03-07T14:49:21;16.70;52.60
65582;DHT22;52231;40.090;18.348;2024-03-07T14:51:51;16.50;56.70
65582;DHT22;52231;40.090;18.348;2024-03-07T14:54:21;16.30;59.80
65582;DHT22;52231;40.090;18.348;2024-03-07T14:56:49;16.10;61.10
65582;DHT22;52231;40.090;18.348;2024-03-07T14:59:18;15.80;63.00
65582;DHT22;52231;40.090;18.348;2024-03-07T15:01:46;15.80;64.20
65582;DHT22;52231;40.090;18.348;2024-03-07T15:04:15;15.60;64.80
65582;DHT22;52231;40.090;18.348;2024-03-07T15:06:43;15.50;65.10
65582;DHT22;52231;40.090;18.348;2024-03-07T15:09:12;15.50;65.80
65582;DHT22;52231;40.090;18.348;2024-03-07T15:11:41;15.30;66.10
65582;DHT22;52231;40.090;18.348;2024-03-07T15:14:10;15.40;66.60
65582;DHT22;52231;40.090;18.348;2024-03-07T15:16:39;15.60;66.20
65582;DHT22;52231;40.090;18.348;2024-03-07T15:19:08;15.60;65.80
65582;DHT22;52231;40.090;18.348;2024-03-07T15:21:37;15.70;65.70
65582;DHT22;52231;40.090;18.348;2024-03-07T15:24:07;15.80;65.50
65582;DHT22;52231;40.090;18.348;2024-03-07T15:26:35;15.90;65.70
65582;DHT22;52231;40.090;18.348;2024-03-07T15:29:03;16.00;65.80
65582;DHT22;52231;40.090;18.348;2024-03-07T15:31:31;16.00;65.90
65582;DHT22;52231;40.090;18.348;2024-03-07T15:34:00;16.20;65.90
65582;DHT22;52231;40.090;18.348;2024-03-07T15:36:28;16.30;65.80
65582;DHT22;52231;40.090;18.348;2024-03-07T15:38:59;16.30;64.90
65582;DHT22;52231;40.090;18.348;2024-03-07T15:41:35;16.30;64.80
65582;DHT22;52231;40.090;18.348;2024-03-07T15:44:03;16.20;64.70
65582;DHT22;52231;40.090;18.348;2024-03-07T15:46:31;16.00;65.40
65582;DHT22;52231;40.090;18.348;2024-03-07T15:48:59;15.90;65.60
65582;DHT22;52231;40.090;18.348;2024-03-07T15:51:28;15.80;65.90
65582;DHT22;52231;40.090;18.348;2024-03-07T15:53:56;15.70;66.60
65582;DHT22;52231;40.090;18.348;2024-03-07T15:56:25;15.60;66.90
65582;DHT22;52231;40.090;18.348;2024-03-07T15:58:54;15.60;67.20
65582;DHT22;52231;40.090;18.348;2024-03-07T16:01:22;15.70;67.10
65582;DHT22;52231;40.090;18.348;2024-03-07T16:03:51;15.80;66.90
65582;DHT22;52231;40.090;18.348;2024-03-07T16:06:19;15.70;66.80
65582;DHT22;52231;40.090;18.348;2024-03-07T16:08:49;15.70;66.60
65582;DHT22;52231;40.090;18.348;2024-03-07T16:11:20;15.60;66.30
65582;DHT22;52231;40.090;18.348;2024-03-07T16:13:51;15.40;62.80
65582;DHT22;52231;40.090;18.348;2024-03-07T16:16:22;15.30;61.10
65582;DHT22;52231;40.090;18.348;2024-03-07T16:18:50;15.00;57.00
65582;DHT22;52231;40.090;18.348;2024-03-07T16:21:20;14.80;57.70